createdAt,value
2017-10-21T00:01:06.269Z,15.60
2017-10-21T00:03:32.471Z,15.60
2017-10-21T00:05:58.710Z,15.60
2017-10-21T00:08:24.925Z,15.50
2017-10-21T00:10:51.115Z,15.60
2017-10-21T00:13:17.366Z,15.50
2017-10-21T00:15:43.605Z,15.60
2017-10-21T00:18:10.813Z,15.60
2017-10-21T00:20:37.066Z,15.60
2017-10-21T00:23:03.280Z,15.60
2017-10-21T00:25:29.496Z,15.70
2017-10-21T00:27:55.692Z,15.70
2017-10-21T00:30:21.944Z,15.70
2017-10-21T00:32:48.538Z,15.80
2017-10-21T00:35:14.792Z,15.80
2017-10-21T00:37:40.979Z,15.80
2017-10-21T00:40:07.266Z,15.80
2017-10-21T00:42:33.856Z,15.80
2017-10-21T00:45:00.085Z,15.80
2017-10-21T00:47:26.296Z,15.70
2017-10-21T00:49:52.517Z,15.80
2017-10-21T00:52:18.751Z,15.80
2017-10-21T00:54:44.968Z,15.80
2017-10-21T00:57:11.203Z,15.80
2017-10-21T00:59:37.438Z,15.80
2017-10-21T01:02:03.691Z,15.80
2017-10-21T01:04:29.970Z,15.80
2017-10-21T01:06:56.251Z,15.80
2017-10-21T01:09:22.591Z,15.80
2017-10-21T01:11:48.861Z,15.80
2017-10-21T01:14:15.095Z,15.80
2017-10-21T01:16:41.385Z,15.80
2017-10-21T01:19:07.656Z,15.80
2017-10-21T01:21:33.914Z,15.80
2017-10-21T01:24:01.145Z,15.90
2017-10-21T01:26:27.451Z,15.90
2017-10-21T01:28:53.688Z,16.00
2017-10-21T01:31:20.724Z,16.00
2017-10-21T01:33:46.995Z,16.00
2017-10-21T01:36:13.270Z,16.00
2017-10-21T01:38:39.885Z,15.90
2017-10-21T01:41:06.158Z,15.90
2017-10-21T01:43:32.411Z,15.90
2017-10-21T01:45:58.668Z,15.90
2017-10-21T01:48:24.913Z,15.90
2017-10-21T01:50:51.513Z,15.80
2017-10-21T01:53:17.806Z,15.80
2017-10-21T01:55:44.058Z,15.80
2017-10-21T01:58:10.296Z,15.70
2017-10-21T02:00:36.552Z,15.60
2017-10-21T02:03:02.806Z,15.60
2017-10-21T02:05:29.417Z,15.60
2017-10-21T02:07:55.682Z,15.60
2017-10-21T02:10:21.937Z,15.60
2017-10-21T02:12:48.197Z,15.60
2017-10-21T02:15:14.457Z,15.60
2017-10-21T02:17:41.104Z,15.70
2017-10-21T02:20:07.341Z,15.70
2017-10-21T02:22:33.606Z,15.70
2017-10-21T02:24:59.853Z,15.70
2017-10-21T02:27:26.093Z,15.60
2017-10-21T02:29:52.352Z,15.60
2017-10-21T02:32:18.580Z,15.60
2017-10-21T02:34:44.845Z,15.70
2017-10-21T02:37:11.088Z,15.60
2017-10-21T02:39:37.330Z,15.60
2017-10-21T02:42:03.582Z,15.60
2017-10-21T02:44:30.216Z,15.80
2017-10-21T02:46:56.838Z,15.70
2017-10-21T02:49:23.092Z,15.80
2017-10-21T02:51:49.353Z,15.70
2017-10-21T02:54:15.600Z,15.70
2017-10-21T02:56:41.871Z,15.70
2017-10-21T02:59:09.130Z,15.80
2017-10-21T03:01:35.364Z,15.80
2017-10-21T03:04:01.591Z,15.80
2017-10-21T03:06:27.841Z,15.80
2017-10-21T03:08:54.082Z,15.80
2017-10-21T03:11:20.352Z,15.80
2017-10-21T03:13:46.573Z,15.70
2017-10-21T03:16:12.805Z,15.70
2017-10-21T03:21:11.844Z,15.40
2017-10-21T03:23:38.144Z,15.20
2017-10-21T03:26:04.446Z,15.30
2017-10-21T03:28:30.716Z,15.50
2017-10-21T03:30:57.356Z,15.70
2017-10-21T03:33:23.961Z,15.70
2017-10-21T03:35:50.199Z,15.70
2017-10-21T03:38:16.478Z,15.60
2017-10-21T03:40:42.692Z,15.50
2017-10-21T03:43:08.906Z,15.50
2017-10-21T03:45:35.518Z,15.50
2017-10-21T03:48:01.726Z,15.50
2017-10-21T03:50:27.947Z,15.50
2017-10-21T03:52:54.145Z,15.40
2017-10-21T03:55:20.365Z,15.50
2017-10-21T03:57:46.593Z,15.50
2017-10-21T04:00:12.827Z,15.40
2017-10-21T04:02:39.014Z,15.30
2017-10-21T04:05:05.221Z,15.40
2017-10-21T04:07:31.465Z,15.40
2017-10-21T04:09:57.678Z,15.50
2017-10-21T04:12:23.927Z,15.40
2017-10-21T04:14:50.163Z,15.40
2017-10-21T04:17:16.816Z,15.30
2017-10-21T04:19:43.426Z,15.30
2017-10-21T04:22:09.682Z,15.30
2017-10-21T04:24:35.941Z,15.40
2017-10-21T04:27:02.180Z,15.40
2017-10-21T04:29:28.465Z,15.50
2017-10-21T04:31:55.056Z,15.60
2017-10-21T04:34:21.283Z,15.60
2017-10-21T04:36:47.480Z,15.60
2017-10-21T04:39:13.697Z,15.60
2017-10-21T04:41:39.893Z,15.60
2017-10-21T04:44:06.112Z,15.60
2017-10-21T04:46:32.312Z,15.60
2017-10-21T04:48:58.550Z,15.60
2017-10-21T04:51:24.788Z,15.40
2017-10-21T04:53:50.970Z,15.40
2017-10-21T04:56:17.168Z,15.40
2017-10-21T04:58:43.740Z,15.50
2017-10-21T05:01:09.974Z,15.50
2017-10-21T05:03:36.204Z,15.60
2017-10-21T05:06:02.685Z,15.50
2017-10-21T05:08:28.909Z,15.40
2017-10-21T05:10:55.110Z,15.30
2017-10-21T05:13:22.265Z,15.30
2017-10-21T05:15:48.461Z,15.30
2017-10-21T05:18:14.694Z,15.40
2017-10-21T05:20:40.942Z,15.40
2017-10-21T05:23:07.172Z,15.40
2017-10-21T05:25:33.400Z,15.40
2017-10-21T05:27:59.609Z,15.40
2017-10-21T05:30:25.882Z,15.50
2017-10-21T05:32:52.108Z,15.50
2017-10-21T05:35:18.327Z,15.70
2017-10-21T05:37:45.348Z,15.60
2017-10-21T05:40:11.604Z,15.60
2017-10-21T05:42:37.860Z,15.50
2017-10-21T05:45:04.670Z,15.50
2017-10-21T05:47:30.941Z,15.50
2017-10-21T05:49:57.184Z,15.50
2017-10-21T05:52:23.472Z,15.40
2017-10-21T05:54:49.679Z,15.40
2017-10-21T05:57:15.916Z,15.50
2017-10-21T05:59:42.119Z,15.50
2017-10-21T06:02:08.372Z,15.50
2017-10-21T06:04:34.633Z,15.60
2017-10-21T06:07:01.252Z,15.60
2017-10-21T06:09:27.476Z,15.60
2017-10-21T06:11:53.718Z,15.70
2017-10-21T06:14:20.313Z,15.90
2017-10-21T06:16:46.553Z,15.90
2017-10-21T06:19:12.835Z,15.90
2017-10-21T06:21:39.113Z,15.80
2017-10-21T06:24:05.384Z,15.70
2017-10-21T06:26:31.608Z,15.80
2017-10-21T06:28:58.199Z,15.60
2017-10-21T06:31:24.482Z,15.60
2017-10-21T06:33:50.709Z,15.50
2017-10-21T06:36:16.997Z,15.60
2017-10-21T06:38:43.225Z,15.60
2017-10-21T06:41:09.568Z,15.70
2017-10-21T06:43:35.776Z,15.70
2017-10-21T06:46:02.011Z,15.80
2017-10-21T06:48:28.224Z,15.80
2017-10-21T06:50:54.423Z,15.80
2017-10-21T06:53:20.677Z,15.90
2017-10-21T06:55:46.909Z,15.90
2017-10-21T06:58:13.167Z,16.00
2017-10-21T07:00:39.397Z,16.00
2017-10-21T07:03:05.671Z,16.10
2017-10-21T07:05:31.911Z,16.20
2017-10-21T07:07:58.133Z,16.20
2017-10-21T07:10:24.385Z,16.20
2017-10-21T07:12:51.614Z,16.40
2017-10-21T07:15:17.881Z,16.50
2017-10-21T07:17:44.118Z,16.50
2017-10-21T07:20:10.349Z,16.40
2017-10-21T07:22:36.558Z,16.20
2017-10-21T07:25:02.825Z,16.30
2017-10-21T07:27:29.440Z,16.40
2017-10-21T07:29:56.105Z,16.50
2017-10-21T07:32:22.712Z,16.40
2017-10-21T07:34:48.960Z,16.50
2017-10-21T07:37:15.560Z,16.40
2017-10-21T07:39:41.786Z,16.40
2017-10-21T07:42:08.021Z,16.50
2017-10-21T07:44:34.267Z,16.70
2017-10-21T07:47:00.880Z,16.90
2017-10-21T07:49:27.184Z,16.90
2017-10-21T07:51:53.417Z,17.00
2017-10-21T07:54:19.662Z,17.00
2017-10-21T07:56:45.863Z,17.10
2017-10-21T07:59:12.101Z,17.20
2017-10-21T08:01:38.323Z,17.30
2017-10-21T08:04:04.550Z,17.40
2017-10-21T08:06:30.760Z,17.50
2017-10-21T08:08:56.962Z,17.50
2017-10-21T08:11:23.200Z,17.40
2017-10-21T08:13:49.795Z,17.40
2017-10-21T08:16:16.047Z,17.40
2017-10-21T08:18:42.344Z,17.50
2017-10-21T08:21:08.595Z,17.30
2017-10-21T08:23:34.847Z,17.10
2017-10-21T08:26:01.436Z,17.40
2017-10-21T08:28:27.691Z,17.40
2017-10-21T08:30:54.014Z,17.30
2017-10-21T08:33:20.321Z,17.40
2017-10-21T08:35:46.619Z,17.40
2017-10-21T08:38:12.925Z,17.40
2017-10-21T08:40:39.199Z,17.40
2017-10-21T08:43:05.784Z,17.30
2017-10-21T08:45:32.031Z,16.90
2017-10-21T08:47:58.679Z,17.00
2017-10-21T08:50:25.309Z,17.20
2017-10-21T08:52:51.945Z,17.40
2017-10-21T08:55:18.590Z,17.50
2017-10-21T08:57:44.815Z,17.50
2017-10-21T09:00:12.397Z,17.50
2017-10-21T09:02:38.629Z,17.60
2017-10-21T09:05:06.905Z,17.50
2017-10-21T09:07:33.134Z,17.60
2017-10-21T09:09:59.369Z,17.60
2017-10-21T09:12:25.631Z,17.50
2017-10-21T09:14:51.857Z,17.70
2017-10-21T09:17:18.312Z,17.70
2017-10-21T09:19:44.936Z,18.30
2017-10-21T09:22:12.387Z,18.30
2017-10-21T09:24:38.594Z,18.30
2017-10-21T09:27:04.816Z,17.90
2017-10-21T09:29:31.019Z,17.90
2017-10-21T09:31:57.264Z,17.90
2017-10-21T09:34:23.556Z,18.10
2017-10-21T09:36:50.163Z,18.20
2017-10-21T09:39:16.461Z,18.20
2017-10-21T09:41:42.721Z,18.30
2017-10-21T09:44:08.965Z,18.50
2017-10-21T09:46:35.617Z,19.20
2017-10-21T09:49:02.270Z,19.30
2017-10-21T09:51:28.509Z,19.30
2017-10-21T09:53:54.788Z,19.40
2017-10-21T09:56:21.011Z,19.70
2017-10-21T09:58:47.246Z,20.10
2017-10-21T10:01:13.505Z,20.80
2017-10-21T10:03:39.757Z,21.70
2017-10-21T10:06:05.963Z,22.50
2017-10-21T10:08:32.201Z,24.30
2017-10-21T10:10:58.426Z,26.40
2017-10-21T10:13:24.724Z,25.70
2017-10-21T10:15:50.950Z,24.80
2017-10-21T10:18:17.191Z,24.60
2017-10-21T10:20:43.776Z,25.50
2017-10-21T10:23:09.992Z,25.50
2017-10-21T10:25:36.221Z,26.90
2017-10-21T10:28:02.478Z,25.60
2017-10-21T10:30:28.700Z,24.90
2017-10-21T10:32:54.973Z,24.70
2017-10-21T10:35:21.585Z,26.30
2017-10-21T10:37:47.868Z,26.40
2017-10-21T10:40:14.081Z,27.30
2017-10-21T10:42:40.849Z,26.90
2017-10-21T10:45:07.125Z,26.40
2017-10-21T10:47:33.728Z,28.80
2017-10-21T10:50:00.033Z,28.80
2017-10-21T10:52:27.977Z,30.20
2017-10-21T10:54:54.614Z,30.30
2017-10-21T10:57:21.217Z,28.20
2017-10-21T10:59:47.430Z,28.20
2017-10-21T11:02:13.704Z,26.50
2017-10-21T11:04:40.309Z,24.60
2017-10-21T11:07:06.590Z,24.60
2017-10-21T11:09:32.808Z,25.20
2017-10-21T11:11:59.074Z,25.60
2017-10-21T11:14:25.351Z,25.60
2017-10-21T11:16:51.852Z,26.70
2017-10-21T11:19:18.070Z,27.10
2017-10-21T11:21:44.312Z,26.70
2017-10-21T11:24:10.538Z,26.80
2017-10-21T11:26:37.603Z,27.20
2017-10-21T11:29:03.884Z,26.50
2017-10-21T11:31:30.111Z,26.40
2017-10-21T11:33:56.381Z,26.50
2017-10-21T11:36:22.934Z,26.70
2017-10-21T11:38:49.306Z,26.60
2017-10-21T11:41:15.741Z,26.00
2017-10-21T11:43:42.017Z,25.30
2017-10-21T11:46:08.260Z,24.40
2017-10-21T11:48:34.886Z,23.40
2017-10-21T11:51:01.178Z,23.40
2017-10-21T11:53:27.429Z,23.80
2017-10-21T11:55:53.727Z,24.30
2017-10-21T11:58:20.759Z,25.20
2017-10-21T12:00:46.984Z,25.70
2017-10-21T12:03:13.223Z,25.50
2017-10-21T12:05:39.461Z,25.90
2017-10-21T12:08:05.753Z,25.90
2017-10-21T12:10:32.359Z,27.30
2017-10-21T12:12:58.625Z,27.30
2017-10-21T12:15:25.265Z,28.30
2017-10-21T12:17:51.767Z,28.30
2017-10-21T12:20:17.990Z,28.10
2017-10-21T12:22:44.246Z,27.90
2017-10-21T12:25:10.813Z,27.20
2017-10-21T12:27:38.049Z,27.20
2017-10-21T12:30:04.336Z,26.60
2017-10-21T12:32:30.562Z,26.10
2017-10-21T12:34:56.813Z,25.60
2017-10-21T12:37:23.378Z,25.90
2017-10-21T12:39:49.643Z,26.00
2017-10-21T12:42:15.892Z,26.20
2017-10-21T12:44:42.177Z,26.00
2017-10-21T12:47:08.398Z,25.50
2017-10-21T12:49:34.639Z,24.90
2017-10-21T12:52:00.879Z,24.70
2017-10-21T12:54:27.120Z,24.70
2017-10-21T12:56:53.759Z,24.10
2017-10-21T12:59:20.074Z,24.20
2017-10-21T13:01:46.370Z,23.90
2017-10-21T13:04:12.727Z,23.80
2017-10-21T13:06:38.974Z,23.70
2017-10-21T13:09:05.211Z,24.20
2017-10-21T13:11:32.245Z,25.60
2017-10-21T13:13:58.476Z,26.90
2017-10-21T13:16:24.726Z,28.00
2017-10-21T13:18:50.971Z,29.00
2017-10-21T13:21:17.534Z,26.90
2017-10-21T13:23:43.805Z,27.00
2017-10-21T13:26:10.079Z,26.80
2017-10-21T13:28:37.339Z,26.80
2017-10-21T13:31:03.584Z,26.50
2017-10-21T13:33:29.893Z,26.40
2017-10-21T13:35:57.182Z,26.20
2017-10-21T13:38:24.333Z,26.10
2017-10-21T13:40:50.576Z,25.60
2017-10-21T13:43:17.743Z,25.30
2017-10-21T13:45:44.359Z,24.50
2017-10-21T13:48:10.561Z,24.50
2017-10-21T13:50:36.863Z,24.10
2017-10-21T13:53:03.106Z,23.80
2017-10-21T13:55:29.336Z,23.20
2017-10-21T13:57:55.591Z,23.10
2017-10-21T14:00:21.801Z,22.90
2017-10-21T14:02:48.057Z,22.90
2017-10-21T14:05:14.329Z,22.60
2017-10-21T14:07:41.578Z,22.30
2017-10-21T14:10:07.806Z,22.20
2017-10-21T14:12:34.461Z,22.10
2017-10-21T14:15:00.687Z,22.10
2017-10-21T14:17:26.898Z,22.10
2017-10-21T14:19:53.534Z,22.20
2017-10-21T14:22:20.127Z,22.20
2017-10-21T14:24:46.391Z,22.20
2017-10-21T14:27:12.966Z,21.90
2017-10-21T14:29:39.224Z,22.00
2017-10-21T14:32:05.469Z,21.80
2017-10-21T14:34:31.743Z,21.70
2017-10-21T14:36:57.985Z,21.60
2017-10-21T14:39:25.234Z,21.80
2017-10-21T14:41:51.458Z,22.10
2017-10-21T14:44:17.686Z,22.20
2017-10-21T14:46:43.940Z,22.40
2017-10-21T14:49:10.221Z,22.70
2017-10-21T14:51:36.492Z,22.70
2017-10-21T14:54:02.766Z,22.70
2017-10-21T14:56:29.477Z,22.70
2017-10-21T14:58:55.726Z,22.70
2017-10-21T15:01:22.014Z,22.50
2017-10-21T15:03:48.253Z,22.40
2017-10-21T15:06:14.520Z,22.30
2017-10-21T15:08:41.117Z,22.20
2017-10-21T15:11:07.361Z,22.20
2017-10-21T15:13:33.671Z,22.20
2017-10-21T15:15:59.906Z,22.00
2017-10-21T15:18:26.205Z,21.80
2017-10-21T15:20:52.464Z,21.60
2017-10-21T15:23:18.729Z,21.70
2017-10-21T15:25:44.983Z,21.50
2017-10-21T15:28:11.453Z,21.40
2017-10-21T15:30:37.698Z,21.40
2017-10-21T15:33:03.905Z,21.40
2017-10-21T15:35:30.156Z,21.40
2017-10-21T15:37:56.380Z,21.40
2017-10-21T15:40:23.415Z,21.30
2017-10-21T15:42:49.624Z,21.30
2017-10-21T15:45:15.910Z,21.20
2017-10-21T15:47:42.167Z,21.00
2017-10-21T15:50:08.406Z,20.90
2017-10-21T15:52:34.642Z,20.70
2017-10-21T15:55:00.885Z,20.60
2017-10-21T15:57:27.156Z,20.60
2017-10-21T15:59:53.404Z,20.70
2017-10-21T16:02:19.640Z,20.60
2017-10-21T16:04:46.112Z,20.50
2017-10-21T16:07:12.396Z,20.40
2017-10-21T16:09:38.669Z,20.40
2017-10-21T16:12:04.900Z,20.40
2017-10-21T16:14:32.077Z,20.30
2017-10-21T16:16:58.661Z,20.10
2017-10-21T16:19:24.940Z,20.10
2017-10-21T16:21:51.541Z,19.90
2017-10-21T16:24:17.781Z,19.90
2017-10-21T16:26:44.006Z,19.70
2017-10-21T16:29:10.263Z,19.60
2017-10-21T16:31:36.888Z,19.30
2017-10-21T16:34:03.088Z,19.30
2017-10-21T16:36:29.323Z,19.10
2017-10-21T16:38:55.547Z,19.00
2017-10-21T16:41:21.775Z,18.80
2017-10-21T16:43:48.022Z,18.60
2017-10-21T16:46:14.390Z,18.50
2017-10-21T16:48:40.705Z,18.40
2017-10-21T16:51:06.990Z,18.30
2017-10-21T16:53:33.307Z,18.20
2017-10-21T16:55:59.527Z,18.10
2017-10-21T16:58:25.889Z,18.10
2017-10-21T17:00:52.267Z,18.10
2017-10-21T17:03:19.105Z,18.10
2017-10-21T17:05:45.987Z,18.10
2017-10-21T17:08:12.292Z,17.90
2017-10-21T17:10:38.614Z,17.90
2017-10-21T17:13:05.023Z,17.90
2017-10-21T17:15:31.369Z,17.90
2017-10-21T17:17:58.040Z,18.00
2017-10-21T17:20:25.166Z,18.00
2017-10-21T17:22:51.453Z,18.10
2017-10-21T17:25:17.741Z,18.10
2017-10-21T17:27:43.984Z,18.10
2017-10-21T17:30:10.221Z,18.10
2017-10-21T17:32:36.540Z,18.10
2017-10-21T17:35:02.889Z,18.10
2017-10-21T17:37:29.319Z,18.10
2017-10-21T17:39:55.545Z,18.10
2017-10-21T17:42:21.782Z,18.00
2017-10-21T17:44:48.042Z,18.00
2017-10-21T17:47:14.339Z,18.00
2017-10-21T17:49:40.611Z,18.00
2017-10-21T17:52:07.209Z,18.00
2017-10-21T17:54:33.442Z,18.00
2017-10-21T17:56:59.721Z,18.00
2017-10-21T17:59:26.005Z,18.00
2017-10-21T18:01:53.347Z,17.90
2017-10-21T18:04:19.598Z,17.90
2017-10-21T18:06:46.291Z,18.00
2017-10-21T18:09:13.476Z,18.00
2017-10-21T18:11:39.792Z,18.00
2017-10-21T18:14:06.105Z,18.00
2017-10-21T18:16:32.669Z,17.90
2017-10-21T18:18:59.605Z,18.00
2017-10-21T18:21:25.898Z,17.90
2017-10-21T18:23:52.167Z,18.00
2017-10-21T18:26:18.486Z,18.00
2017-10-21T18:28:44.824Z,18.00
2017-10-21T18:31:11.139Z,18.00
2017-10-21T18:33:38.082Z,18.00
2017-10-21T18:36:04.597Z,18.00
2017-10-21T18:38:30.852Z,18.00
2017-10-21T18:40:57.198Z,18.00
2017-10-21T18:43:23.468Z,17.90
2017-10-21T18:45:49.761Z,17.60
2017-10-21T18:48:15.996Z,17.20
2017-10-21T18:50:42.277Z,16.80
2017-10-21T18:53:08.839Z,16.50
2017-10-21T18:55:35.193Z,16.20
2017-10-21T18:58:01.577Z,15.90
2017-10-21T19:00:27.949Z,15.60
2017-10-21T19:02:54.214Z,15.50
2017-10-21T19:05:20.645Z,15.10
2017-10-21T19:07:46.944Z,14.90
2017-10-21T19:10:13.601Z,14.80
2017-10-21T19:12:40.928Z,14.70
2017-10-21T19:15:07.242Z,14.60
2017-10-21T19:17:33.581Z,14.60
2017-10-21T19:19:59.924Z,14.60
2017-10-21T19:22:26.994Z,14.40
2017-10-21T19:24:53.677Z,14.10
2017-10-21T19:27:19.972Z,14.20
2017-10-21T19:29:46.390Z,14.10
2017-10-21T19:32:12.796Z,14.00
2017-10-21T19:34:39.212Z,14.00
2017-10-21T19:37:05.509Z,13.90
2017-10-21T19:39:32.413Z,13.80
2017-10-21T19:41:59.329Z,13.50
2017-10-21T19:44:25.597Z,13.50
2017-10-21T19:46:52.257Z,13.30
2017-10-21T19:49:18.548Z,13.30
2017-10-21T19:51:45.041Z,13.40
2017-10-21T19:54:11.389Z,13.30
2017-10-21T19:56:37.633Z,13.30
2017-10-21T19:59:03.948Z,13.30
2017-10-21T20:01:31.971Z,13.10
2017-10-21T20:03:58.623Z,13.00
2017-10-21T20:06:24.899Z,13.00
2017-10-21T20:08:51.202Z,12.90
2017-10-21T20:11:17.468Z,12.70
2017-10-21T20:13:43.743Z,12.60
2017-10-21T20:16:10.034Z,12.70
2017-10-21T20:18:36.268Z,12.60
2017-10-21T20:21:03.029Z,12.60
2017-10-21T20:23:29.615Z,12.80
2017-10-21T20:25:55.895Z,12.80
2017-10-21T20:28:22.489Z,12.70
2017-10-21T20:30:48.756Z,12.70
2017-10-21T20:33:17.069Z,12.80
2017-10-21T20:35:43.328Z,12.80
2017-10-21T20:38:09.666Z,12.80
2017-10-21T20:40:35.953Z,13.00
2017-10-21T20:43:02.212Z,13.10
2017-10-21T20:45:28.545Z,13.00
2017-10-21T20:47:54.812Z,13.10
2017-10-21T20:50:21.409Z,12.90
2017-10-21T20:52:48.517Z,12.90
2017-10-21T20:55:14.909Z,13.00
2017-10-21T20:57:41.184Z,12.80
2017-10-21T21:00:07.566Z,12.90
2017-10-21T21:02:33.892Z,13.10
2017-10-21T21:05:00.173Z,13.30
2017-10-21T21:07:26.407Z,13.30
2017-10-21T21:09:52.722Z,13.10
2017-10-21T21:12:20.126Z,13.20
2017-10-21T21:14:47.523Z,13.30
2017-10-21T21:17:14.124Z,13.40
2017-10-21T21:19:40.952Z,13.30
2017-10-21T21:22:07.228Z,13.30
2017-10-21T21:24:33.477Z,13.40
2017-10-21T21:27:00.856Z,13.40
2017-10-21T21:29:27.077Z,13.40
2017-10-21T21:31:53.417Z,13.20
2017-10-21T21:34:19.651Z,13.10
2017-10-21T21:36:45.916Z,13.00
2017-10-21T21:39:12.542Z,13.00
2017-10-21T21:41:39.248Z,13.10
2017-10-21T21:44:05.496Z,13.10
2017-10-21T21:46:31.740Z,13.20
2017-10-21T21:48:58.458Z,13.20
2017-10-21T21:51:24.722Z,13.20
2017-10-21T21:53:51.353Z,13.30
2017-10-21T21:56:17.949Z,13.40
2017-10-21T21:58:44.192Z,13.30
2017-10-21T22:01:10.477Z,13.30
2017-10-21T22:03:36.789Z,13.20
2017-10-21T22:06:03.435Z,13.30
2017-10-21T22:08:29.683Z,13.30
2017-10-21T22:10:55.951Z,13.20
2017-10-21T22:13:22.181Z,13.20
2017-10-21T22:15:48.434Z,13.10
2017-10-21T22:18:15.016Z,12.90
2017-10-21T22:20:41.285Z,12.90
2017-10-21T22:23:07.946Z,12.60
2017-10-21T22:25:34.222Z,12.60
2017-10-21T22:28:00.633Z,12.60
2017-10-21T22:30:26.890Z,12.60
2017-10-21T22:32:53.122Z,12.80
2017-10-21T22:35:20.847Z,12.70
2017-10-21T22:37:47.078Z,12.80
2017-10-21T22:40:13.346Z,12.80
2017-10-21T22:42:39.598Z,12.90
2017-10-21T22:45:06.227Z,12.90
2017-10-21T22:47:32.434Z,12.90
2017-10-21T22:49:58.684Z,12.80
2017-10-21T22:52:24.892Z,12.70
2017-10-21T22:54:51.148Z,12.60
2017-10-21T22:57:17.760Z,12.50
2017-10-21T22:59:44.029Z,12.50
2017-10-21T23:02:10.259Z,12.60
2017-10-21T23:04:36.479Z,12.30
2017-10-21T23:07:03.097Z,12.10
2017-10-21T23:09:29.328Z,12.00
2017-10-21T23:11:56.488Z,12.00
2017-10-21T23:14:23.074Z,12.00
2017-10-21T23:16:49.295Z,12.00
2017-10-21T23:19:15.506Z,12.10
2017-10-21T23:21:41.732Z,12.30
2017-10-21T23:24:07.994Z,12.20
2017-10-21T23:26:34.214Z,12.10
2017-10-21T23:29:00.442Z,12.00
2017-10-21T23:31:26.654Z,12.10
2017-10-21T23:33:53.225Z,12.30
2017-10-21T23:36:19.438Z,12.30
2017-10-21T23:38:45.649Z,12.50
2017-10-21T23:41:11.872Z,12.50
2017-10-21T23:43:38.166Z,12.40
2017-10-21T23:46:04.746Z,12.30
2017-10-21T23:48:30.949Z,12.30
2017-10-21T23:50:57.196Z,12.50
2017-10-21T23:53:26.306Z,12.30
2017-10-21T23:55:52.530Z,12.10
2017-10-21T23:58:18.751Z,12.20
